Time;durP1;ratioP1;P1;durP2;ratioP2;P2;SDS_P1;SDS_P2;PMS_P1;PMS_P2;Temp;Humidity;BMP_temperature;BMP_pressure;BME280_temperature;BME280_humidity;BME280_pressure;Samples;Min_cycle;Max_cycle;Signal;HPM_P1;HPM_P2
2023/05/19 00:01:09;;;;;;;9.85;3.75;;;8.30;99.90;;;;;;4925843;29;20035;-90
2023/05/19 00:03:39;;;;;;;8.55;3.40;;;8.20;99.90;;;;;;4930734;29;20607;-91
2023/05/19 00:06:09;;;;;;;13.25;3.58;;;8.20;99.90;;;;;;4930146;29;20020;-90
2023/05/19 00:08:37;;;;;;;7.30;3.20;;;8.20;99.90;;;;;;4936780;29;20023;-91
2023/05/19 00:11:03;;;;;;;8.02;4.07;;;8.10;99.90;;;;;;4937898;29;20380;-90
2023/05/19 00:13:29;;;;;;;9.60;3.42;;;8.10;99.90;;;;;;4932263;29;20476;-91
2023/05/19 00:15:55;;;;;;;6.05;3.17;;;8.10;99.90;;;;;;4937074;29;20083;-90
2023/05/19 00:18:22;;;;;;;12.50;3.55;;;8.10;99.90;;;;;;4936364;29;20472;-91
2023/05/19 00:20:47;;;;;;;9.68;3.67;;;8.10;99.90;;;;;;4937044;29;20484;-91
2023/05/19 00:23:13;;;;;;;9.48;4.03;;;8.00;99.90;;;;;;4937433;29;20035;-91
2023/05/19 00:25:38;;;;;;;8.60;4.10;;;8.00;99.90;;;;;;4932440;29;20075;-90
2023/05/19 00:28:04;;;;;;;8.55;3.80;;;8.00;99.90;;;;;;4928171;29;20019;-91
2023/05/19 00:30:29;;;;;;;8.90;3.95;;;8.00;99.90;;;;;;4939607;29;20399;-90
2023/05/19 00:32:55;;;;;;;10.05;4.15;;;7.90;99.90;;;;;;4928656;28;20031;-90
2023/05/19 00:35:22;;;;;;;8.40;3.85;;;7.90;99.90;;;;;;4936924;29;20031;-90
2023/05/19 00:37:48;;;;;;;9.73;4.50;;;7.90;99.90;;;;;;4936930;29;20114;-91
2023/05/19 00:40:14;;;;;;;12.38;4.22;;;7.80;99.90;;;;;;4937116;29;20063;-91
2023/05/19 00:42:40;;;;;;;13.05;3.97;;;7.80;99.90;;;;;;4937418;29;20075;-91
2023/05/19 00:45:06;;;;;;;13.98;5.05;;;7.80;99.90;;;;;;4937374;29;20134;-91
2023/05/19 00:47:32;;;;;;;9.93;4.22;;;7.80;99.90;;;;;;4929878;29;20066;-90
2023/05/19 00:49:58;;;;;;;11.20;4.65;;;7.80;99.90;;;;;;4933518;29;20100;-90
2023/05/19 00:52:24;;;;;;;7.47;3.78;;;7.70;99.90;;;;;;4936942;29;20123;-90
2023/05/19 00:54:51;;;;;;;8.25;4.47;;;7.70;99.90;;;;;;4932523;29;20052;-91
2023/05/19 00:57:16;;;;;;;14.50;4.68;;;7.70;99.90;;;;;;4936570;29;20066;-90
2023/05/19 00:59:42;;;;;;;9.75;4.78;;;7.60;99.90;;;;;;4937286;29;20491;-90
2023/05/19 01:02:08;;;;;;;14.68;4.50;;;7.50;99.90;;;;;;4935211;29;20118;-91
2023/05/19 01:04:38;;;;;;;12.10;4.43;;;7.50;99.90;;;;;;4934282;29;20032;-90
2023/05/19 01:07:04;;;;;;;8.38;4.43;;;7.50;99.90;;;;;;4920110;29;20039;-90
2023/05/19 01:09:31;;;;;;;10.93;4.38;;;7.50;99.90;;;;;;4925961;29;20031;-90
2023/05/19 01:11:56;;;;;;;9.70;4.28;;;7.40;99.90;;;;;;4937214;28;20036;-91
2023/05/19 01:14:22;;;;;;;12.48;5.35;;;7.40;99.90;;;;;;4935181;29;20028;-90
2023/05/19 01:17:04;;;;;;;12.52;4.78;;;7.40;99.90;;;;;;4932593;29;20028;-91
2023/05/19 01:19:47;;;;;;;9.43;4.85;;;7.40;99.90;;;;;;4936028;29;20049;-90
2023/05/19 01:22:34;;;;;;;12.65;4.93;;;7.30;99.90;;;;;;4940760;29;20027;-91
2023/05/19 01:25:36;;;;;;;9.07;5.10;;;7.30;99.90;;;;;;4939264;29;20028;-91
2023/05/19 01:28:23;;;;;;;12.05;5.05;;;7.30;99.90;;;;;;4937441;29;20034;-90
2023/05/19 01:30:54;;;;;;;14.07;5.28;;;7.30;99.90;;;;;;4925449;29;20047;-91
2023/05/19 01:33:21;;;;;;;11.20;4.53;;;7.30;99.90;;;;;;4933253;29;20568;-91
2023/05/19 01:35:48;;;;;;;11.18;5.07;;;7.30;99.90;;;;;;4936063;29;20086;-90
2023/05/19 01:38:16;;;;;;;14.98;5.05;;;7.30;99.90;;;;;;4934913;29;20122;-91
2023/05/19 01:40:42;;;;;;;12.63;4.85;;;7.30;99.90;;;;;;4940099;29;20043;-90
2023/05/19 01:43:11;;;;;;;11.60;5.22;;;7.30;99.90;;;;;;4937630;29;20027;-90
2023/05/19 01:45:38;;;;;;;8.50;5.30;;;7.20;99.90;;;;;;4926046;29;20039;-91
2023/05/19 01:48:05;;;;;;;14.07;5.20;;;7.30;99.90;;;;;;4932580;29;20381;-91
2023/05/19 01:50:31;;;;;;;10.65;5.47;;;7.20;99.90;;;;;;4935293;29;20083;-90
2023/05/19 01:52:57;;;;;;;8.23;5.22;;;7.20;99.90;;;;;;4935886;29;20039;-91
2023/05/19 01:55:23;;;;;;;8.52;4.50;;;7.20;99.90;;;;;;4935880;29;20027;-90
2023/05/19 01:58:01;;;;;;;8.45;5.20;;;7.20;99.90;;;;;;4926644;29;20031;-91
2023/05/19 02:00:44;;;;;;;11.80;5.43;;;7.20;99.90;;;;;;4952639;29;20595;-90
2023/05/19 02:03:36;;;;;;;15.82;6.43;;;7.30;99.90;;;;;;4951994;29;20027;-90
2023/05/19 02:06:10;;;;;;;10.93;5.43;;;7.20;99.90;;;;;;4937020;29;20043;-91
2023/05/19 02:08:49;;;;;;;15.55;5.93;;;7.20;99.90;;;;;;4938207;29;20484;-91
2023/05/19 02:11:25;;;;;;;15.90;5.97;;;7.20;99.90;;;;;;4939640;29;20039;-90
2023/05/19 02:13:55;;;;;;;10.15;5.45;;;7.20;99.90;;;;;;4936799;29;20122;-90
2023/05/19 02:16:26;;;;;;;10.20;5.50;;;7.10;99.90;;;;;;4935747;29;20090;-91
2023/05/19 02:18:52;;;;;;;12.63;4.75;;;7.10;99.90;;;;;;4938158;29;20074;-91
2023/05/19 02:21:18;;;;;;;17.00;5.63;;;7.10;99.90;;;;;;4933849;29;20454;-91
2023/05/19 02:23:44;;;;;;;12.07;5.13;;;7.10;99.90;;;;;;4936225;29;20032;-91
2023/05/19 02:26:09;;;;;;;10.80;6.05;;;7.10;99.90;;;;;;4928241;29;20027;-90
2023/05/19 02:28:38;;;;;;;11.85;5.53;;;7.10;99.90;;;;;;4938698;29;20031;-92
2023/05/19 02:31:07;;;;;;;10.60;5.30;;;7.00;99.90;;;;;;4937053;29;20377;-91
2023/05/19 02:33:33;;;;;;;11.02;6.25;;;7.00;99.90;;;;;;4937024;29;20391;-91
2023/05/19 02:35:58;;;;;;;13.18;6.18;;;7.00;99.90;;;;;;4938562;29;20022;-91
2023/05/19 02:38:24;;;;;;;13.50;5.63;;;7.00;99.90;;;;;;4949928;29;20086;-91
2023/05/19 02:40:51;;;;;;;11.82;5.38;;;7.00;99.90;;;;;;4939699;29;20035;-92
2023/05/19 02:43:17;;;;;;;13.93;6.38;;;7.00;99.90;;;;;;4934413;29;20400;-91
2023/05/19 02:45:42;;;;;;;14.32;5.97;;;7.00;99.90;;;;;;4929408;29;20032;-91
2023/05/19 02:48:08;;;;;;;10.57;5.43;;;7.00;99.90;;;;;;4938569;29;20055;-92
2023/05/19 02:50:34;;;;;;;12.82;6.00;;;7.00;99.90;;;;;;4935374;29;20440;-92
2023/05/19 02:52:59;;;;;;;12.52;5.30;;;7.10;99.90;;;;;;4938426;28;20074;-91
2023/05/19 02:55:25;;;;;;;13.18;6.07;;;7.00;99.90;;;;;;4937903;29;20027;-91
2023/05/19 02:57:51;;;;;;;11.25;6.03;;;7.00;99.90;;;;;;4939070;29;20047;-91
2023/05/19 03:00:16;;;;;;;11.95;6.22;;;7.00;99.90;;;;;;4944284;29;20064;-91
2023/05/19 03:02:42;;;;;;;13.05;5.97;;;7.00;99.90;;;;;;4926686;29;20427;-91
2023/05/19 03:05:09;;;;;;;14.20;6.05;;;7.00;99.90;;;;;;4938582;29;20391;-91
2023/05/19 03:07:35;;;;;;;10.40;6.03;;;6.90;99.90;;;;;;4946511;28;20547;-93
2023/05/19 03:10:02;;;;;;;16.67;6.55;;;7.00;99.90;;;;;;4950661;28;20065;-92
2023/05/19 03:12:28;;;;;;;11.68;6.15;;;7.00;99.90;;;;;;4942009;29;20491;-92
2023/05/19 03:14:54;;;;;;;13.55;6.32;;;7.00;99.90;;;;;;4934772;29;20162;-91
2023/05/19 03:17:19;;;;;;;16.83;6.68;;;7.00;99.90;;;;;;4946205;29;20175;-91
2023/05/19 03:19:45;;;;;;;16.52;6.03;;;7.00;99.90;;;;;;4930588;29;20043;-92
2023/05/19 03:22:10;;;;;;;22.55;9.32;;;7.00;99.90;;;;;;4938551;29;20554;-91
2023/05/19 03:24:36;;;;;;;13.00;6.47;;;7.00;99.90;;;;;;4938278;29;20156;-91
2023/05/19 03:27:04;;;;;;;14.60;6.53;;;7.10;99.90;;;;;;4938720;29;20499;-91
2023/05/19 03:29:30;;;;;;;13.18;7.07;;;7.10;99.90;;;;;;4934565;29;20051;-91
2023/05/19 03:31:55;;;;;;;18.27;6.88;;;7.10;99.90;;;;;;4927780;29;20045;-92
2023/05/19 03:34:21;;;;;;;17.05;6.93;;;7.10;99.90;;;;;;4936676;29;20027;-92
2023/05/19 03:36:49;;;;;;;15.05;6.72;;;7.20;99.90;;;;;;4937937;29;20476;-91
2023/05/19 03:39:15;;;;;;;17.38;7.93;;;7.20;99.90;;;;;;4934142;29;20031;-91
2023/05/19 03:41:40;;;;;;;12.52;7.32;;;7.10;99.90;;;;;;4932700;29;20122;-91
2023/05/19 03:44:06;;;;;;;17.25;6.95;;;7.20;99.90;;;;;;4937702;29;20473;-91
2023/05/19 03:46:31;;;;;;;15.80;7.03;;;7.20;99.90;;;;;;4936774;29;20030;-91
2023/05/19 03:48:57;;;;;;;13.68;7.35;;;7.20;99.90;;;;;;4938062;29;20062;-91
2023/05/19 03:51:22;;;;;;;12.55;6.38;;;7.20;99.90;;;;;;4935914;29;20043;-91
2023/05/19 03:53:48;;;;;;;20.40;7.35;;;7.20;99.90;;;;;;4943959;28;20035;-91
2023/05/19 03:56:15;;;;;;;22.08;8.18;;;7.20;99.90;;;;;;4937647;29;20028;-91
2023/05/19 03:58:43;;;;;;;13.18;7.20;;;7.20;99.90;;;;;;4937738;29;20033;-91
2023/05/19 04:01:11;;;;;;;14.35;7.80;;;7.20;99.90;;;;;;4937265;29;20046;-91
2023/05/19 04:03:37;;;;;;;19.65;7.25;;;7.30;99.90;;;;;;4937690;29;20086;-91
2023/05/19 04:06:03;;;;;;;16.60;7.40;;;7.30;99.90;;;;;;4951951;28;20024;-91
2023/05/19 04:08:28;;;;;;;21.35;8.15;;;7.30;99.90;;;;;;4954183;29;20121;-91
2023/05/19 04:10:54;;;;;;;21.27;8.20;;;7.30;99.90;;;;;;4935650;29;20519;-92
2023/05/19 04:13:20;;;;;;;21.92;8.55;;;7.30;99.90;;;;;;4936940;29;20024;-91
2023/05/19 04:15:46;;;;;;;18.05;8.32;;;7.30;99.90;;;;;;4937567;29;20467;-91
2023/05/19 04:18:11;;;;;;;16.05;8.32;;;7.30;99.90;;;;;;4934790;29;20035;-91
2023/05/19 04:20:37;;;;;;;18.02;8.57;;;7.30;99.90;;;;;;4941428;29;20043;-91
2023/05/19 04:23:02;;;;;;;13.63;7.45;;;7.40;99.90;;;;;;4926150;29;20028;-91
2023/05/19 04:25:28;;;;;;;16.45;8.18;;;7.40;99.90;;;;;;4926562;29;20032;-92
2023/05/19 04:27:56;;;;;;;15.43;8.60;;;7.40;99.90;;;;;;4926247;29;20031;-91
2023/05/19 04:30:23;;;;;;;16.60;8.15;;;7.50;99.90;;;;;;4940439;29;20052;-91
2023/05/19 04:32:49;;;;;;;14.73;7.60;;;7.50;99.90;;;;;;4938588;29;20500;-92
2023/05/19 04:35:16;;;;;;;16.23;8.25;;;7.50;99.90;;;;;;4929709;29;20547;-91
2023/05/19 04:37:44;;;;;;;13.80;7.30;;;7.60;99.90;;;;;;4937358;29;20484;-91
2023/05/19 04:40:11;;;;;;;16.67;7.35;;;7.60;99.90;;;;;;4935666;29;20031;-92
2023/05/19 04:42:40;;;;;;;18.00;8.82;;;7.60;99.90;;;;;;4935590;29;20036;-92
2023/05/19 04:45:07;;;;;;;20.13;8.25;;;7.60;99.90;;;;;;4928614;29;20445;-91
2023/05/19 04:47:35;;;;;;;17.40;8.05;;;7.70;99.90;;;;;;4937014;29;20484;-91
2023/05/19 04:50:02;;;;;;;23.15;8.68;;;7.70;99.90;;;;;;4937848;28;20534;-91
2023/05/19 04:52:28;;;;;;;17.10;8.10;;;7.80;99.90;;;;;;4930927;29;20043;-90
2023/05/19 04:54:53;;;;;;;20.75;8.70;;;7.80;99.90;;;;;;4941313;29;20118;-90
2023/05/19 04:57:19;;;;;;;16.98;7.78;;;7.90;99.90;;;;;;4935880;29;20031;-90
2023/05/19 04:59:45;;;;;;;19.58;8.98;;;7.90;99.90;;;;;;4941088;29;20468;-90
2023/05/19 05:02:10;;;;;;;16.85;8.63;;;8.00;99.90;;;;;;4937097;28;20063;-91
2023/05/19 05:04:39;;;;;;;17.38;9.27;;;8.00;99.90;;;;;;4938985;29;20035;-90
2023/05/19 05:07:05;;;;;;;17.88;9.13;;;8.00;99.90;;;;;;4939868;29;20094;-91
2023/05/19 05:09:30;;;;;;;18.13;9.20;;;8.10;99.90;;;;;;4940182;29;20031;-90
2023/05/19 05:11:56;;;;;;;17.40;8.18;;;8.20;99.90;;;;;;4940733;29;20537;-91
2023/05/19 05:14:22;;;;;;;13.68;8.05;;;8.30;99.90;;;;;;4940207;29;20041;-91
2023/05/19 05:16:48;;;;;;;15.40;6.93;;;8.60;99.90;;;;;;4938376;29;20059;-91
2023/05/19 05:19:14;;;;;;;13.18;6.78;;;8.80;99.90;;;;;;4940544;29;20023;-92
2023/05/19 05:21:40;;;;;;;12.02;7.68;;;9.10;99.90;;;;;;4942786;29;20118;-90
2023/05/19 05:24:07;;;;;;;10.82;7.00;;;9.30;99.90;;;;;;4940851;29;20053;-91
2023/05/19 05:26:34;;;;;;;14.27;6.90;;;9.60;99.90;;;;;;4937088;29;20141;-90
2023/05/19 05:28:59;;;;;;;13.52;6.10;;;9.90;99.90;;;;;;4935751;29;20504;-91
2023/05/19 05:31:25;;;;;;;15.73;6.55;;;10.10;99.90;;;;;;4938591;29;20065;-91
2023/05/19 05:33:51;;;;;;;11.45;5.68;;;10.30;99.90;;;;;;4921816;29;20196;-90
2023/05/19 05:36:16;;;;;;;11.38;5.63;;;10.40;99.90;;;;;;4938872;29;20054;-88
2023/05/19 05:38:42;;;;;;;14.27;6.85;;;10.50;99.90;;;;;;4940854;29;20051;-89
2023/05/19 05:41:07;;;;;;;22.95;8.55;;;10.50;99.90;;;;;;4926143;29;20027;-90
2023/05/19 05:43:33;;;;;;;14.90;6.95;;;10.50;99.90;;;;;;4939033;29;20078;-92
2023/05/19 05:45:59;;;;;;;18.13;7.75;;;10.50;99.90;;;;;;4937654;29;20032;-91
2023/05/19 05:48:25;;;;;;;12.00;6.82;;;10.60;99.90;;;;;;4940796;29;20088;-91
2023/05/19 05:50:51;;;;;;;15.65;7.75;;;10.60;99.90;;;;;;4942509;29;20495;-91
2023/05/19 05:53:19;;;;;;;10.98;7.03;;;10.60;99.90;;;;;;4939856;29;20046;-92
2023/05/19 05:55:48;;;;;;;13.73;6.32;;;10.70;99.90;;;;;;4927840;29;20153;-91
2023/05/19 05:58:15;;;;;;;16.13;7.53;;;10.70;99.90;;;;;;4938870;28;20031;-91
2023/05/19 06:00:42;;;;;;;11.82;6.18;;;10.70;99.90;;;;;;4938034;29;20032;-91
2023/05/19 06:03:08;;;;;;;11.45;6.80;;;10.80;99.90;;;;;;4936558;28;20027;-91
2023/05/19 06:05:34;;;;;;;12.88;6.65;;;10.80;99.90;;;;;;4950117;29;20031;-91
2023/05/19 06:08:00;;;;;;;11.15;6.00;;;10.90;99.90;;;;;;4935191;29;20060;-91
2023/05/19 06:10:27;;;;;;;9.75;5.78;;;11.00;99.90;;;;;;4939930;29;20069;-91
2023/05/19 06:12:53;;;;;;;11.23;5.97;;;11.10;99.90;;;;;;4941328;29;20047;-90
2023/05/19 06:15:18;;;;;;;10.70;6.00;;;11.20;99.90;;;;;;4938202;29;20119;-91
2023/05/19 06:17:44;;;;;;;10.63;5.95;;;11.30;99.90;;;;;;4931312;29;20027;-90
2023/05/19 06:20:11;;;;;;;12.45;7.18;;;11.30;99.90;;;;;;4942619;29;20055;-91
2023/05/19 06:22:37;;;;;;;15.23;6.63;;;11.20;99.90;;;;;;4937391;29;20035;-90
2023/05/19 06:25:03;;;;;;;13.20;5.97;;;11.20;99.90;;;;;;4941009;29;20496;-90
2023/05/19 06:27:29;;;;;;;10.93;5.82;;;11.30;99.90;;;;;;4939556;29;20062;-91
2023/05/19 06:29:54;;;;;;;11.50;5.88;;;11.30;99.90;;;;;;4942109;29;20043;-90
2023/05/19 06:32:20;;;;;;;11.18;5.18;;;11.30;99.90;;;;;;4930699;29;20042;-91
2023/05/19 06:34:52;;;;;;;12.48;5.63;;;11.40;99.90;;;;;;4938702;29;20070;-90
2023/05/19 06:37:23;;;;;;;13.10;5.20;;;11.50;99.90;;;;;;4939380;29;20035;-90
2023/05/19 06:39:52;;;;;;;10.07;4.85;;;11.60;99.90;;;;;;4948204;29;20034;-91
2023/05/19 06:42:23;;;;;;;9.55;4.55;;;11.70;99.90;;;;;;4936400;29;20050;-90
2023/05/19 06:44:50;;;;;;;9.90;5.38;;;11.90;99.90;;;;;;4936360;28;20456;-90
2023/05/19 06:47:16;;;;;;;10.38;5.18;;;11.90;99.90;;;;;;4948414;28;20038;-89
2023/05/19 06:49:42;;;;;;;10.40;4.65;;;12.00;99.90;;;;;;4952120;29;20027;-90
2023/05/19 06:52:07;;;;;;;12.85;4.57;;;12.10;99.90;;;;;;4928130;29;20074;-89
2023/05/19 06:54:33;;;;;;;12.60;4.55;;;12.20;99.90;;;;;;4938177;29;20023;-90
2023/05/19 06:56:58;;;;;;;12.30;5.00;;;12.30;99.90;;;;;;4942102;29;20027;-90
2023/05/19 06:59:24;;;;;;;9.35;4.72;;;12.40;99.90;;;;;;4939065;29;20027;-91
2023/05/19 07:01:50;;;;;;;8.25;5.07;;;12.50;99.90;;;;;;4939069;29;20031;-90
2023/05/19 07:04:15;;;;;;;11.27;4.93;;;12.60;99.90;;;;;;4939814;29;20024;-91
2023/05/19 07:06:41;;;;;;;8.57;4.38;;;12.80;99.90;;;;;;4935663;29;20122;-91
2023/05/19 07:09:07;;;;;;;11.55;4.75;;;13.00;99.90;;;;;;4923193;29;20099;-90
2023/05/19 07:11:33;;;;;;;14.27;5.63;;;13.10;99.90;;;;;;4936815;29;20035;-91
2023/05/19 07:13:59;;;;;;;11.80;5.10;;;13.20;99.90;;;;;;4934081;29;20035;-90
2023/05/19 07:16:24;;;;;;;9.32;4.80;;;13.30;99.90;;;;;;4926424;29;20385;-91
2023/05/19 07:18:50;;;;;;;10.45;4.57;;;13.50;99.90;;;;;;4937957;29;20024;-90
2023/05/19 07:21:15;;;;;;;10.30;4.07;;;13.60;99.90;;;;;;4944340;29;20484;-90
2023/05/19 07:23:41;;;;;;;10.70;4.10;;;13.70;99.90;;;;;;4957390;29;20369;-91
2023/05/19 07:26:06;;;;;;;9.05;3.58;;;13.70;99.90;;;;;;4939000;29;20487;-90
2023/05/19 07:28:33;;;;;;;10.00;3.90;;;13.80;99.90;;;;;;4937557;28;20027;-90
2023/05/19 07:30:59;;;;;;;8.63;3.75;;;13.90;99.90;;;;;;4939008;29;20043;-91
2023/05/19 07:33:25;;;;;;;7.13;3.30;;;13.90;99.90;;;;;;4939663;29;20034;-92
2023/05/19 07:35:52;;;;;;;10.15;3.35;;;14.10;99.90;;;;;;4942127;29;20027;-91
2023/05/19 07:38:17;;;;;;;7.68;3.33;;;14.20;99.90;;;;;;4942429;29;20031;-92
2023/05/19 07:40:46;;;;;;;8.73;3.90;;;14.20;99.90;;;;;;4956252;29;20507;-91
2023/05/19 07:43:11;;;;;;;10.27;2.95;;;14.20;99.90;;;;;;4942058;29;20042;-91
2023/05/19 07:45:37;;;;;;;9.55;3.60;;;14.20;99.90;;;;;;4956113;28;20023;-91
2023/05/19 07:48:03;;;;;;;8.43;2.70;;;14.20;99.90;;;;;;4951485;28;20031;-91
2023/05/19 07:50:28;;;;;;;9.13;2.92;;;14.30;99.90;;;;;;4940982;29;20031;-91
2023/05/19 07:52:54;;;;;;;9.15;2.47;;;14.40;99.90;;;;;;4955419;29;20546;-91
2023/05/19 07:55:22;;;;;;;9.27;2.85;;;14.50;99.90;;;;;;4941415;29;20430;-91
2023/05/19 07:57:48;;;;;;;7.50;2.60;;;14.60;99.90;;;;;;4946766;29;20478;-91
2023/05/19 08:00:14;;;;;;;9.23;2.83;;;14.60;99.90;;;;;;4940269;29;20106;-91
2023/05/19 08:02:40;;;;;;;10.00;2.63;;;14.60;99.90;;;;;;4940298;29;20047;-92
2023/05/19 08:05:08;;;;;;;9.85;3.22;;;14.70;99.90;;;;;;4939433;29;20039;-92
2023/05/19 08:07:33;;;;;;;8.32;2.65;;;14.70;99.90;;;;;;4942417;29;20054;-92
2023/05/19 08:09:59;;;;;;;8.77;2.45;;;14.80;99.90;;;;;;4946262;29;20030;-91
2023/05/19 08:12:24;;;;;;;7.07;2.40;;;15.00;99.90;;;;;;4952304;29;20502;-91
2023/05/19 08:14:51;;;;;;;5.85;2.38;;;15.20;99.90;;;;;;4940879;29;20122;-92
2023/05/19 08:17:16;;;;;;;7.57;2.25;;;15.30;99.90;;;;;;4939952;29;20035;-91
2023/05/19 08:19:42;;;;;;;5.40;1.88;;;15.40;99.90;;;;;;4940240;29;20034;-91
2023/05/19 08:22:07;;;;;;;5.68;2.47;;;15.40;99.90;;;;;;4938810;29;20027;-91
2023/05/19 08:24:33;;;;;;;11.18;3.65;;;15.50;99.90;;;;;;4941388;29;20035;-92
2023/05/19 08:26:58;;;;;;;6.55;1.60;;;15.60;99.90;;;;;;4939873;29;20037;-92
2023/05/19 08:29:24;;;;;;;6.05;1.95;;;15.70;99.90;;;;;;4939844;29;20020;-91
2023/05/19 08:31:51;;;;;;;4.88;1.60;;;15.80;99.90;;;;;;4938583;29;20042;-91
2023/05/19 08:34:17;;;;;;;5.57;1.40;;;15.80;99.90;;;;;;4940166;29;20041;-91
2023/05/19 08:36:44;;;;;;;7.30;1.38;;;15.80;99.90;;;;;;4943631;29;20024;-91
2023/05/19 08:39:10;;;;;;;10.07;1.50;;;15.90;99.90;;;;;;4941616;29;20144;-91
2023/05/19 08:41:35;;;;;;;7.22;1.48;;;15.90;99.90;;;;;;4946898;29;20027;-91
2023/05/19 08:44:01;;;;;;;10.95;1.83;;;15.90;99.90;;;;;;4939608;29;20046;-91
2023/05/19 08:46:28;;;;;;;5.25;1.88;;;16.00;99.90;;;;;;4939991;29;20031;-92
2023/05/19 08:49:03;;;;;;;6.43;1.60;;;16.10;99.90;;;;;;4940786;29;20104;-91
2023/05/19 08:51:30;;;;;;;8.48;1.67;;;16.20;99.40;;;;;;4944927;29;20027;-91
2023/05/19 08:53:59;;;;;;;6.38;1.27;;;16.20;99.20;;;;;;4942111;29;20047;-91
2023/05/19 08:56:25;;;;;;;6.13;1.52;;;16.40;99.90;;;;;;4942271;29;20041;-91
2023/05/19 08:58:51;;;;;;;4.63;1.45;;;16.70;99.50;;;;;;4943588;29;20028;-91
2023/05/19 09:01:18;;;;;;;7.38;1.20;;;16.80;97.40;;;;;;4942657;29;20038;-91
2023/05/19 09:03:45;;;;;;;5.18;1.25;;;16.80;96.30;;;;;;4941333;29;20027;-91
2023/05/19 09:06:11;;;;;;;5.03;1.58;;;17.00;96.00;;;;;;4934815;29;20027;-91
2023/05/19 09:08:38;;;;;;;4.65;0.90;;;17.20;94.90;;;;;;4934912;29;20461;-91
2023/05/19 09:11:04;;;;;;;4.15;1.00;;;17.30;93.30;;;;;;4940449;29;20035;-91
2023/05/19 09:13:29;;;;;;;5.55;0.52;;;17.40;90.80;;;;;;4942874;29;20139;-91
2023/05/19 09:15:56;;;;;;;5.03;0.93;;;17.50;91.30;;;;;;4942551;29;20094;-91
2023/05/19 09:18:23;;;;;;;4.85;0.85;;;17.80;90.40;;;;;;4940512;29;20024;-91
2023/05/19 09:20:49;;;;;;;3.30;0.60;;;17.80;86.60;;;;;;4941199;28;20728;-92
2023/05/19 09:23:17;;;;;;;8.90;0.95;;;17.90;85.80;;;;;;4942833;29;20082;-91
2023/05/19 09:25:50;;;;;;;6.75;0.50;;;18.00;82.60;;;;;;4940985;28;20034;-92
2023/05/19 09:28:30;;;;;;;4.47;0.60;;;18.10;80.90;;;;;;4940434;29;20061;-93
2023/05/19 09:31:07;;;;;;;3.90;0.70;;;17.90;78.40;;;;;;4948245;28;20055;-90
2023/05/19 09:33:43;;;;;;;5.57;0.88;;;18.10;79.30;;;;;;4928760;29;20031;-89
2023/05/19 09:36:10;;;;;;;8.55;0.63;;;18.10;76.40;;;;;;4940019;29;20031;-88
2023/05/19 09:38:39;;;;;;;3.88;0.63;;;18.20;75.40;;;;;;4941112;29;20023;-90
2023/05/19 09:41:06;;;;;;;4.95;0.50;;;18.20;74.80;;;;;;4941723;29;20082;-89
2023/05/19 09:43:33;;;;;;;4.45;0.80;;;18.20;72.50;;;;;;4939996;29;20034;-89
2023/05/19 09:46:02;;;;;;;4.82;0.50;;;18.20;72.50;;;;;;4942893;29;20034;-88
2023/05/19 09:48:28;;;;;;;4.53;0.50;;;18.30;72.10;;;;;;4942940;29;20479;-89
2023/05/19 09:50:54;;;;;;;3.33;0.80;;;18.30;69.50;;;;;;4926785;29;20035;-90
2023/05/19 09:53:20;;;;;;;7.28;0.73;;;18.30;70.40;;;;;;4944240;28;20470;-90
2023/05/19 09:55:47;;;;;;;4.00;0.60;;;18.30;68.30;;;;;;4938597;29;20037;-90
2023/05/19 09:58:19;;;;;;;8.38;0.85;;;18.40;68.70;;;;;;4939978;29;20028;-89
2023/05/19 10:00:46;;;;;;;5.07;0.52;;;18.50;69.60;;;;;;4946355;28;20031;-89
2023/05/19 10:03:13;;;;;;;4.40;0.70;;;18.50;69.40;;;;;;4940783;29;20031;-89
2023/05/19 10:05:40;;;;;;;5.40;0.75;;;18.40;68.30;;;;;;4940180;29;20027;-90
2023/05/19 10:08:09;;;;;;;2.97;0.70;;;18.40;69.60;;;;;;4951231;29;20415;-90
2023/05/19 10:10:35;;;;;;;6.25;1.00;;;18.50;70.10;;;;;;4942009;29;20023;-90
2023/05/19 10:13:03;;;;;;;5.95;0.65;;;18.70;70.70;;;;;;4939412;29;20047;-90
2023/05/19 10:15:29;;;;;;;4.35;0.68;;;18.60;69.70;;;;;;4939845;29;20015;-91
2023/05/19 10:17:55;;;;;;;4.05;1.30;;;18.70;70.20;;;;;;4939900;29;20030;-90
2023/05/19 10:20:21;;;;;;;8.05;1.25;;;18.70;70.40;;;;;;4956432;28;20030;-90
2023/05/19 10:22:47;;;;;;;5.25;0.55;;;18.90;71.30;;;;;;4957117;29;20110;-89
2023/05/19 10:25:14;;;;;;;4.20;0.80;;;19.10;71.70;;;;;;4955823;29;20093;-90
2023/05/19 10:27:56;;;;;;;4.82;0.68;;;19.20;70.00;;;;;;4933256;29;20498;-91
2023/05/19 10:30:37;;;;;;;3.97;0.80;;;19.00;69.10;;;;;;4946711;28;20048;-91
2023/05/19 10:33:08;;;;;;;2.80;0.70;;;18.80;68.80;;;;;;4939967;29;20059;-90
2023/05/19 10:36:09;;;;;;;4.35;1.00;;;18.80;69.20;;;;;;4939362;29;20023;-92
2023/05/19 10:38:47;;;;;;;7.25;0.60;;;18.70;68.50;;;;;;4939577;29;20032;-91
2023/05/19 10:41:25;;;;;;;5.00;0.75;;;18.70;68.40;;;;;;4938980;29;20134;-92
2023/05/19 10:43:59;;;;;;;7.80;0.88;;;18.80;67.70;;;;;;4939098;29;20023;-91
2023/05/19 10:46:28;;;;;;;4.45;1.00;;;18.90;67.90;;;;;;4939991;29;20027;-91
2023/05/19 10:48:54;;;;;;;9.02;0.90;;;19.10;67.40;;;;;;4949896;29;20023;-91
2023/05/19 10:51:20;;;;;;;7.03;0.70;;;18.90;66.30;;;;;;4938381;29;20054;-91
2023/05/19 10:53:46;;;;;;;5.10;0.60;;;18.70;66.70;;;;;;4938131;29;20027;-92
2023/05/19 10:56:31;;;;;;;5.85;0.70;;;18.50;67.60;;;;;;4948455;29;20055;-91
2023/05/19 10:58:57;;;;;;;5.68;0.80;;;18.40;67.80;;;;;;4950239;29;20028;-91
2023/05/19 11:01:31;;;;;;;6.00;0.80;;;18.40;67.10;;;;;;4942741;29;20023;-91
2023/05/19 11:04:04;;;;;;;4.75;0.60;;;18.40;68.00;;;;;;4936495;29;20130;-91
2023/05/19 11:06:37;;;;;;;;;;;18.60;69.20;;;;;;4953061;29;20035;-92
2023/05/19 11:09:14;;;;;;;4.88;0.88;;;18.90;68.40;;;;;;4941090;29;19906;-91
2023/05/19 11:11:51;;;;;;;3.67;0.60;;;19.00;66.90;;;;;;4941067;29;20118;-91
2023/05/19 11:14:27;;;;;;;6.85;1.20;;;18.80;65.70;;;;;;4943019;29;20035;-91
2023/05/19 11:16:57;;;;;;;6.00;0.80;;;18.60;65.40;;;;;;4939099;29;20023;-92
2023/05/19 11:19:34;;;;;;;4.88;0.93;;;18.60;65.80;;;;;;4935402;29;20028;-92
2023/05/19 11:22:12;;;;;;;3.58;0.60;;;18.70;66.20;;;;;;4942896;29;20114;-91
2023/05/19 11:24:49;;;;;;;5.95;0.73;;;18.80;66.00;;;;;;4947375;29;20032;-91
2023/05/19 11:27:32;;;;;;;2.88;0.60;;;18.90;66.30;;;;;;4936021;29;20496;-91
2023/05/19 11:30:19;;;;;;;3.42;0.60;;;18.90;65.10;;;;;;4938354;29;20180;-91
2023/05/19 11:32:47;;;;;;;2.95;0.70;;;18.90;65.50;;;;;;4938613;29;20122;-91
2023/05/19 11:35:13;;;;;;;5.28;0.80;;;19.10;65.90;;;;;;4938519;29;20496;-91
2023/05/19 11:37:42;;;;;;;5.85;0.82;;;19.20;66.00;;;;;;4938522;29;20119;-92
2023/05/19 11:40:08;;;;;;;8.75;0.95;;;19.40;65.10;;;;;;4938347;29;20037;-91
2023/05/19 11:42:35;;;;;;;2.83;0.50;;;19.50;65.70;;;;;;4953643;29;20098;-91
2023/05/19 11:45:02;;;;;;;5.32;0.70;;;19.60;65.30;;;;;;4935495;29;20126;-91
2023/05/19 11:47:27;;;;;;;4.47;1.15;;;19.70;64.40;;;;;;4941270;29;20097;-91
2023/05/19 11:49:55;;;;;;;3.85;0.60;;;19.60;63.90;;;;;;4947941;29;20499;-92
2023/05/19 11:52:21;;;;;;;5.45;0.80;;;19.60;64.40;;;;;;4938011;29;20035;-92
2023/05/19 11:54:47;;;;;;;4.32;0.80;;;19.60;63.90;;;;;;4943069;29;20077;-91
2023/05/19 11:57:13;;;;;;;4.85;0.60;;;19.60;64.60;;;;;;4940760;29;20024;-91
2023/05/19 11:59:42;;;;;;;4.25;0.70;;;19.70;63.20;;;;;;4954007;29;20023;-91
2023/05/19 12:02:23;;;;;;;4.95;0.77;;;19.60;62.90;;;;;;4938729;29;20019;-93
2023/05/19 12:04:49;;;;;;;5.03;0.73;;;19.50;62.90;;;;;;4938137;29;20037;-91
2023/05/19 12:07:19;;;;;;;4.63;0.75;;;19.40;61.50;;;;;;4938706;29;20063;-92
2023/05/19 12:09:45;;;;;;;5.25;0.80;;;19.40;62.60;;;;;;4938364;29;20475;-91
2023/05/19 12:12:16;;;;;;;2.90;0.50;;;19.60;63.00;;;;;;4940967;29;20389;-91
2023/05/19 12:14:42;;;;;;;2.92;0.70;;;19.80;62.80;;;;;;4937972;29;20031;-92
2023/05/19 12:17:18;;;;;;;4.25;0.60;;;19.90;62.70;;;;;;4938774;29;20391;-91
2023/05/19 12:19:48;;;;;;;5.60;0.60;;;20.10;63.10;;;;;;4948122;29;20023;-91
2023/05/19 12:22:15;;;;;;;6.72;0.80;;;20.10;62.50;;;;;;4933703;29;20480;-91
2023/05/19 12:24:41;;;;;;;4.40;0.80;;;20.10;62.10;;;;;;4953323;29;20031;-91
2023/05/19 12:27:14;;;;;;;4.65;0.73;;;20.10;61.30;;;;;;4937792;29;20046;-92
2023/05/19 12:29:39;;;;;;;5.70;0.80;;;20.10;61.30;;;;;;4937558;29;20079;-93
2023/05/19 12:32:08;;;;;;;4.03;0.75;;;19.90;60.80;;;;;;4937706;29;20070;-91
2023/05/19 12:34:36;;;;;;;3.60;0.73;;;19.60;61.20;;;;;;4953949;29;20024;-91
2023/05/19 12:37:03;;;;;;;1.92;0.52;;;19.40;62.00;;;;;;4954234;29;20033;-92
2023/05/19 12:39:28;;;;;;;4.32;0.77;;;19.50;62.30;;;;;;4941927;29;20048;-91
2023/05/19 12:42:01;;;;;;;6.22;0.90;;;19.70;61.50;;;;;;4937940;29;20035;-90
2023/05/19 12:44:27;;;;;;;5.20;1.00;;;19.70;61.00;;;;;;4937645;29;20062;-92
2023/05/19 12:46:52;;;;;;;4.00;0.80;;;19.80;60.80;;;;;;4943185;29;20035;-91
2023/05/19 12:49:18;;;;;;;3.00;0.70;;;19.90;60.80;;;;;;4939443;29;20502;-92